Time;durP1;ratioP1;P1;durP2;ratioP2;P2;SDS_P1;SDS_P2;PMS_P1;PMS_P2;Temp;Humidity;BMP_temperature;BMP_pressure;BME280_temperature;BME280_humidity;BME280_pressure;Samples;Min_cycle;Max_cycle;Signal;HPM_P1;HPM_P2
2024/04/24 00:00:04;;;;;;;0.10;0.00;;;;;;;;;;2271133;26;20013;-63
2024/04/24 00:01:06;;;;;;;1.48;0.20;;;;;;;;;;2268548;26;20092;-63
2024/04/24 00:02:07;;;;;;;0.65;0.20;;;;;;;;;;2271064;26;20456;-64
2024/04/24 00:03:09;;;;;;;0.35;0.10;;;;;;;;;;2271134;26;20009;-61
2024/04/24 00:04:11;;;;;;;0.88;0.17;;;;;;;;;;2271196;26;20009;-64
2024/04/24 00:05:13;;;;;;;0.70;0.10;;;;;;;;;;2271015;26;20471;-63
2024/04/24 00:06:15;;;;;;;1.08;0.10;;;;;;;;;;2271428;26;20069;-63
2024/04/24 00:07:16;;;;;;;0.38;0.10;;;;;;;;;;2268857;26;20037;-63
2024/04/24 00:08:18;;;;;;;1.23;0.10;;;;;;;;;;2270959;26;20332;-63
2024/04/24 00:09:19;;;;;;;0.60;0.00;;;;;;;;;;2271215;26;20018;-63
2024/04/24 00:10:21;;;;;;;0.52;0.13;;;;;;;;;;2255088;26;20339;-63
2024/04/24 00:11:23;;;;;;;0.63;0.20;;;;;;;;;;2255762;26;19999;-64
2024/04/24 00:12:25;;;;;;;0.10;0.00;;;;;;;;;;2271119;26;20027;-64
2024/04/24 00:13:26;;;;;;;0.13;0.05;;;;;;;;;;2268620;26;20018;-64
2024/04/24 00:14:28;;;;;;;0.40;0.10;;;;;;;;;;2271137;26;20035;-64
2024/04/24 00:15:29;;;;;;;1.10;0.10;;;;;;;;;;2255263;26;20002;-64
2024/04/24 00:16:32;;;;;;;0.47;0.00;;;;;;;;;;2255535;26;20003;-63
2024/04/24 00:17:33;;;;;;;1.10;0.10;;;;;;;;;;2270945;26;19994;-64
2024/04/24 00:18:34;;;;;;;0.30;0.08;;;;;;;;;;2271144;26;20074;-65
2024/04/24 00:19:36;;;;;;;0.15;0.10;;;;;;;;;;2268698;26;20017;-64
2024/04/24 00:20:37;;;;;;;0.40;0.10;;;;;;;;;;2270926;26;20096;-64
2024/04/24 00:21:38;;;;;;;0.50;0.13;;;;;;;;;;2271113;26;19994;-63
2024/04/24 00:22:41;;;;;;;0.13;0.10;;;;;;;;;;2270844;26;20002;-63
2024/04/24 00:23:42;;;;;;;0.20;0.10;;;;;;;;;;2270599;26;20006;-63
2024/04/24 00:24:43;;;;;;;0.70;0.13;;;;;;;;;;2270991;26;20419;-63
2024/04/24 00:25:45;;;;;;;0.77;0.20;;;;;;;;;;2271130;26;19994;-64
2024/04/24 00:26:46;;;;;;;0.43;0.20;;;;;;;;;;2268827;26;20455;-64
2024/04/24 00:27:53;;;;;;;0.38;0.20;;;;;;;;;;2271192;26;20008;-64
2024/04/24 00:28:55;;;;;;;0.35;0.20;;;;;;;;;;2270989;26;19994;-63
2024/04/24 00:29:56;;;;;;;0.38;0.20;;;;;;;;;;2268763;26;20006;-63
2024/04/24 00:30:59;;;;;;;0.93;0.32;;;;;;;;;;2271027;26;20005;-63
2024/04/24 00:32:05;;;;;;;1.13;0.25;;;;;;;;;;2271163;26;20460;-63
2024/04/24 00:33:06;;;;;;;0.30;0.20;;;;;;;;;;2268591;26;20447;-63
2024/04/24 00:34:07;;;;;;;0.73;0.25;;;;;;;;;;2271193;26;20051;-63
2024/04/24 00:35:09;;;;;;;0.47;0.20;;;;;;;;;;2271197;26;20034;-63
2024/04/24 00:36:11;;;;;;;0.57;0.10;;;;;;;;;;2254990;26;20247;-63
2024/04/24 00:37:12;;;;;;;1.25;0.17;;;;;;;;;;2255445;26;20010;-63
2024/04/24 00:38:13;;;;;;;0.80;0.10;;;;;;;;;;2270785;26;19998;-64
2024/04/24 00:39:15;;;;;;;0.40;0.30;;;;;;;;;;2271144;26;20354;-64
2024/04/24 00:40:16;;;;;;;0.50;0.10;;;;;;;;;;2268729;26;20014;-64
2024/04/24 00:41:18;;;;;;;1.38;0.10;;;;;;;;;;2271141;26;19998;-64
2024/04/24 00:42:19;;;;;;;1.38;0.30;;;;;;;;;;2271222;26;20331;-63
2024/04/24 00:43:21;;;;;;;0.52;0.10;;;;;;;;;;2271127;26;19998;-63
2024/04/24 00:44:22;;;;;;;0.70;0.17;;;;;;;;;;2271040;26;20039;-63
2024/04/24 00:45:24;;;;;;;0.57;0.10;;;;;;;;;;2255038;26;20002;-63
2024/04/24 00:46:26;;;;;;;1.15;0.20;;;;;;;;;;2255450;26;20022;-63
2024/04/24 00:47:30;;;;;;;0.55;0.35;;;;;;;;;;2268285;26;20525;-64
2024/04/24 00:48:32;;;;;;;0.38;0.20;;;;;;;;;;2270588;26;20002;-63
2024/04/24 00:49:33;;;;;;;0.10;0.00;;;;;;;;;;2270874;26;20754;-64
2024/04/24 00:50:35;;;;;;;0.08;0.00;;;;;;;;;;2271173;26;20005;-64
2024/04/24 00:51:37;;;;;;;0.70;0.15;;;;;;;;;;2271190;26;19994;-64
2024/04/24 00:52:40;;;;;;;0.85;0.20;;;;;;;;;;2269700;26;20002;-64
2024/04/24 00:53:42;;;;;;;1.38;0.40;;;;;;;;;;2271017;26;20009;-64
2024/04/24 00:54:43;;;;;;;1.02;0.20;;;;;;;;;;2270339;26;20005;-63
2024/04/24 00:55:45;;;;;;;0.30;0.10;;;;;;;;;;2267882;26;20035;-63
2024/04/24 00:56:50;;;;;;;1.80;0.28;;;;;;;;;;2270622;26;20446;-64
2024/04/24 00:57:52;;;;;;;2.63;0.20;;;;;;;;;;2270890;26;19998;-64
2024/04/24 00:58:54;;;;;;;0.63;0.30;;;;;;;;;;2268403;26;20002;-63
2024/04/24 00:59:55;;;;;;;0.93;0.10;;;;;;;;;;2270971;26;20002;-63
2024/04/24 01:00:57;;;;;;;2.53;0.22;;;;;;;;;;2270984;26;20004;-65
2024/04/24 01:01:58;;;;;;;0.20;0.10;;;;;;;;;;2270917;26;20055;-64
2024/04/24 01:03:01;;;;;;;0.90;0.20;;;;;;;;;;2271005;26;20006;-64
2024/04/24 01:04:03;;;;;;;0.80;0.20;;;;;;;;;;2270995;26;20013;-63
2024/04/24 01:05:05;;;;;;;0.40;0.10;;;;;;;;;;2252501;26;20010;-63
2024/04/24 01:06:07;;;;;;;0.32;0.10;;;;;;;;;;2255540;26;20003;-64
2024/04/24 01:07:08;;;;;;;1.75;0.30;;;;;;;;;;2270968;26;20013;-63
2024/04/24 01:08:09;;;;;;;1.27;0.10;;;;;;;;;;2254711;26;20014;-64
2024/04/24 01:09:12;;;;;;;0.20;0.10;;;;;;;;;;2255434;26;20467;-62
2024/04/24 01:10:17;;;;;;;1.05;0.10;;;;;;;;;;2268514;26;20086;-64
2024/04/24 01:11:18;;;;;;;0.20;0.00;;;;;;;;;;2271045;26;20383;-63
2024/04/24 01:12:19;;;;;;;0.10;0.00;;;;;;;;;;2270977;26;19998;-64
2024/04/24 01:13:21;;;;;;;0.57;0.20;;;;;;;;;;2270728;26;20415;-64
2024/04/24 01:14:22;;;;;;;0.30;0.10;;;;;;;;;;2271086;26;20002;-63
2024/04/24 01:15:24;;;;;;;1.98;0.10;;;;;;;;;;2268761;26;20002;-62
2024/04/24 01:16:28;;;;;;;0.35;0.10;;;;;;;;;;2270722;26;20010;-63
2024/04/24 01:17:30;;;;;;;1.48;0.13;;;;;;;;;;2270801;26;20010;-62
2024/04/24 01:18:34;;;;;;;0.22;0.00;;;;;;;;;;2270882;26;20012;-62
2024/04/24 01:19:42;;;;;;;0.50;0.20;;;;;;;;;;2268715;26;20005;-62
2024/04/24 01:20:43;;;;;;;0.75;0.20;;;;;;;;;;2270878;26;20034;-62
2024/04/24 01:21:48;;;;;;;0.10;0.10;;;;;;;;;;2268746;26;20347;-64
2024/04/24 01:22:59;;;;;;;0.13;0.10;;;;;;;;;;2270684;26;20005;-62
2024/04/24 01:24:09;;;;;;;0.57;0.00;;;;;;;;;;2269550;26;20034;-62
2024/04/24 01:25:30;;;;;;;2.78;0.20;;;;;;;;;;2264752;26;19994;-63
2024/04/24 01:26:49;;;;;;;3.45;0.40;;;;;;;;;;2270106;26;19992;-63
2024/04/24 01:27:51;;;;;;;2.05;0.10;;;;;;;;;;2270091;26;19998;-63
2024/04/24 01:28:54;;;;;;;1.30;0.20;;;;;;;;;;2267757;26;20010;-63
2024/04/24 01:29:55;;;;;;;1.08;0.17;;;;;;;;;;2268548;26;20030;-62
2024/04/24 01:30:57;;;;;;;0.28;0.10;;;;;;;;;;2270715;26;20348;-62
2024/04/24 01:31:58;;;;;;;0.65;0.10;;;;;;;;;;2270647;26;19994;-62
2024/04/24 01:32:59;;;;;;;1.40;0.10;;;;;;;;;;2270753;26;19998;-62
2024/04/24 01:34:01;;;;;;;0.10;0.10;;;;;;;;;;2270704;26;20109;-62
2024/04/24 01:35:03;;;;;;;1.45;0.25;;;;;;;;;;2270626;26;19998;-62
2024/04/24 01:36:04;;;;;;;0.63;0.10;;;;;;;;;;2268608;26;20314;-62
2024/04/24 01:37:06;;;;;;;1.27;0.20;;;;;;;;;;2270742;26;19998;-62
2024/04/24 01:38:08;;;;;;;0.43;0.00;;;;;;;;;;2270398;26;19998;-62
2024/04/24 01:39:10;;;;;;;1.33;0.20;;;;;;;;;;2270757;26;20026;-62
2024/04/24 01:40:11;;;;;;;0.57;0.10;;;;;;;;;;2270651;26;20034;-62
2024/04/24 01:41:13;;;;;;;0.98;0.15;;;;;;;;;;2270660;26;20002;-62
2024/04/24 01:42:14;;;;;;;0.32;0.10;;;;;;;;;;2270789;26;20026;-63
2024/04/24 01:43:15;;;;;;;0.68;0.10;;;;;;;;;;2254587;26;19999;-63
2024/04/24 01:44:17;;;;;;;0.68;0.20;;;;;;;;;;2254864;26;20539;-63
2024/04/24 01:45:18;;;;;;;0.13;0.10;;;;;;;;;;2270953;26;20030;-62
2024/04/24 01:46:19;;;;;;;1.02;0.38;;;;;;;;;;2270824;26;19997;-62
2024/04/24 01:47:22;;;;;;;0.10;0.10;;;;;;;;;;2254652;26;20040;-62
2024/04/24 01:48:23;;;;;;;0.52;0.10;;;;;;;;;;2252668;26;20059;-62
2024/04/24 01:49:25;;;;;;;0.65;0.10;;;;;;;;;;2270496;26;20329;-63
2024/04/24 01:50:26;;;;;;;1.70;0.30;;;;;;;;;;2270771;26;20331;-62
2024/04/24 01:51:27;;;;;;;0.38;0.10;;;;;;;;;;2270543;26;20030;-63
2024/04/24 01:52:29;;;;;;;0.90;0.10;;;;;;;;;;2270630;26;20331;-62
2024/04/24 01:53:31;;;;;;;0.73;0.10;;;;;;;;;;2270185;26;20016;-63
2024/04/24 01:54:32;;;;;;;1.08;0.25;;;;;;;;;;2270478;26;19998;-62
2024/04/24 01:55:33;;;;;;;0.17;0.15;;;;;;;;;;2268165;26;20021;-61
2024/04/24 01:56:35;;;;;;;0.08;0.08;;;;;;;;;;2270806;26;19998;-61
2024/04/24 01:57:36;;;;;;;0.65;0.10;;;;;;;;;;2270611;26;20010;-61
2024/04/24 01:58:37;;;;;;;0.35;0.10;;;;;;;;;;2270371;26;20002;-62
2024/04/24 01:59:40;;;;;;;0.70;0.10;;;;;;;;;;2270544;26;20005;-63
2024/04/24 02:00:41;;;;;;;0.30;0.20;;;;;;;;;;2270603;26;20008;-63
2024/04/24 02:01:43;;;;;;;1.27;0.17;;;;;;;;;;2254501;26;20013;-62
2024/04/24 02:02:45;;;;;;;0.30;0.17;;;;;;;;;;2252955;26;19995;-62
2024/04/24 02:03:46;;;;;;;2.15;0.20;;;;;;;;;;2270376;26;20099;-62
2024/04/24 02:04:48;;;;;;;0.63;0.17;;;;;;;;;;2270586;26;20070;-63
2024/04/24 02:05:51;;;;;;;0.73;0.15;;;;;;;;;;2270302;26;20009;-63
2024/04/24 02:06:52;;;;;;;0.32;0.10;;;;;;;;;;2269909;26;19998;-63
2024/04/24 02:07:54;;;;;;;0.47;0.10;;;;;;;;;;2268204;26;20014;-62
2024/04/24 02:08:55;;;;;;;0.57;0.10;;;;;;;;;;2270327;26;20006;-63
2024/04/24 02:09:57;;;;;;;0.73;0.20;;;;;;;;;;2270464;26;20009;-62
2024/04/24 02:10:58;;;;;;;0.47;0.10;;;;;;;;;;2270561;26;20441;-62
2024/04/24 02:11:59;;;;;;;0.25;0.10;;;;;;;;;;2270442;26;19994;-62
2024/04/24 02:13:01;;;;;;;0.50;0.15;;;;;;;;;;2270253;26;20073;-62
2024/04/24 02:14:02;;;;;;;1.60;0.10;;;;;;;;;;2270347;26;20071;-62
2024/04/24 02:15:04;;;;;;;0.68;0.25;;;;;;;;;;2267952;26;20518;-63
2024/04/24 02:16:05;;;;;;;0.45;0.20;;;;;;;;;;2270475;26;20001;-62
2024/04/24 02:17:08;;;;;;;0.30;0.10;;;;;;;;;;2270416;26;20396;-63
2024/04/24 02:18:10;;;;;;;1.38;0.20;;;;;;;;;;2270245;26;20013;-62
2024/04/24 02:19:11;;;;;;;0.35;0.10;;;;;;;;;;2270405;26;20026;-62
2024/04/24 02:20:13;;;;;;;0.60;0.20;;;;;;;;;;2270251;26;20043;-63
2024/04/24 02:21:14;;;;;;;0.20;0.15;;;;;;;;;;2268262;26;19994;-62
2024/04/24 02:22:16;;;;;;;0.32;0.20;;;;;;;;;;2270407;26;19998;-62
2024/04/24 02:23:20;;;;;;;0.30;0.10;;;;;;;;;;2270124;26;20330;-62
2024/04/24 02:25:43;;;;;;;1.85;0.30;;;;;;;;;;2270147;26;20009;-63
2024/04/24 02:26:44;;;;;;;0.60;0.17;;;;;;;;;;2267988;26;20005;-61
2024/04/24 02:27:45;;;;;;;0.38;0.10;;;;;;;;;;2270073;26;20008;-63
2024/04/24 02:28:47;;;;;;;0.47;0.10;;;;;;;;;;2270450;26;20002;-62
2024/04/24 02:29:48;;;;;;;1.48;0.13;;;;;;;;;;2270450;26;20030;-63
2024/04/24 02:30:50;;;;;;;0.10;0.00;;;;;;;;;;2270462;26;20450;-63
2024/04/24 02:31:51;;;;;;;0.28;0.10;;;;;;;;;;2270371;26;20022;-63
2024/04/24 02:32:53;;;;;;;1.70;0.10;;;;;;;;;;2270355;26;20471;-64
2024/04/24 02:33:54;;;;;;;2.08;0.20;;;;;;;;;;2268175;26;20002;-62
2024/04/24 02:34:55;;;;;;;0.30;0.10;;;;;;;;;;2270522;26;20007;-64
2024/04/24 02:35:57;;;;;;;1.90;0.25;;;;;;;;;;2270498;26;20419;-62
2024/04/24 02:36:58;;;;;;;0.75;0.15;;;;;;;;;;2254407;26;20002;-64
2024/04/24 02:38:00;;;;;;;0.25;0.10;;;;;;;;;;2254360;26;20076;-63
2024/04/24 02:39:01;;;;;;;0.47;0.20;;;;;;;;;;2270053;26;20417;-64
2024/04/24 02:40:02;;;;;;;0.20;0.20;;;;;;;;;;2270614;26;20005;-61
2024/04/24 02:41:04;;;;;;;0.38;0.15;;;;;;;;;;2251991;26;20019;-62
2024/04/24 02:42:05;;;;;;;0.30;0.20;;;;;;;;;;2254677;26;20001;-63
2024/04/24 02:43:07;;;;;;;0.38;0.10;;;;;;;;;;2270383;26;20066;-64
2024/04/24 02:44:08;;;;;;;1.73;0.20;;;;;;;;;;2270057;26;20383;-63
2024/04/24 02:45:11;;;;;;;0.13;0.10;;;;;;;;;;2271153;26;20435;-62
2024/04/24 02:46:12;;;;;;;0.93;0.20;;;;;;;;;;2254820;26;20413;-63
2024/04/24 02:47:13;;;;;;;0.28;0.10;;;;;;;;;;2255452;26;20002;-62
2024/04/24 02:48:15;;;;;;;0.15;0.10;;;;;;;;;;2270771;26;20431;-63
2024/04/24 02:49:16;;;;;;;0.10;0.10;;;;;;;;;;2270498;26;20002;-63
2024/04/24 02:50:17;;;;;;;0.50;0.30;;;;;;;;;;2270435;26;19998;-63
2024/04/24 02:51:19;;;;;;;0.22;0.10;;;;;;;;;;2270320;26;20443;-63
2024/04/24 02:52:20;;;;;;;0.13;0.10;;;;;;;;;;2254596;26;20419;-62
2024/04/24 02:53:21;;;;;;;1.00;0.20;;;;;;;;;;2254441;26;20414;-64
2024/04/24 02:54:23;;;;;;;2.00;0.20;;;;;;;;;;2270168;26;20514;-62
2024/04/24 02:55:24;;;;;;;0.93;0.20;;;;;;;;;;2268316;26;20004;-63
2024/04/24 02:56:26;;;;;;;2.05;0.20;;;;;;;;;;2270149;26;20526;-62
2024/04/24 02:57:28;;;;;;;0.40;0.20;;;;;;;;;;2270271;26;19998;-63
2024/04/24 02:58:29;;;;;;;0.30;0.10;;;;;;;;;;2270174;26;20006;-63
2024/04/24 02:59:31;;;;;;;1.02;0.30;;;;;;;;;;2254369;26;20071;-63
2024/04/24 03:00:33;;;;;;;1.33;0.10;;;;;;;;;;2254629;26;20424;-62
2024/04/24 03:01:34;;;;;;;0.73;0.20;;;;;;;;;;2267844;26;20020;-63
2024/04/24 03:02:38;;;;;;;0.65;0.20;;;;;;;;;;2270192;26;20098;-62
2024/04/24 03:03:41;;;;;;;1.15;0.20;;;;;;;;;;2270481;26;20434;-62
2024/04/24 03:04:42;;;;;;;0.75;0.43;;;;;;;;;;2270218;26;20138;-62
2024/04/24 03:05:44;;;;;;;0.65;0.40;;;;;;;;;;2267904;26;20074;-63
2024/04/24 03:06:46;;;;;;;1.45;0.20;;;;;;;;;;2270037;26;19998;-61
2024/04/24 03:07:47;;;;;;;0.65;0.10;;;;;;;;;;2270262;26;20006;-62
2024/04/24 03:08:49;;;;;;;1.00;0.30;;;;;;;;;;2270013;26;19994;-64
2024/04/24 03:09:50;;;;;;;0.82;0.30;;;;;;;;;;2270124;26;20046;-62
2024/04/24 03:10:52;;;;;;;0.73;0.20;;;;;;;;;;2270102;26;19994;-62
2024/04/24 03:11:53;;;;;;;2.67;0.30;;;;;;;;;;2270165;26;20006;-62
2024/04/24 03:12:55;;;;;;;1.77;0.10;;;;;;;;;;2267840;26;20009;-64
2024/04/24 03:13:56;;;;;;;0.80;0.10;;;;;;;;;;2270234;26;20002;-63
2024/04/24 03:14:57;;;;;;;0.20;0.10;;;;;;;;;;2270336;26;20326;-62
2024/04/24 03:15:59;;;;;;;0.40;0.10;;;;;;;;;;2270061;26;20013;-62
2024/04/24 03:17:00;;;;;;;0.30;0.20;;;;;;;;;;2270318;26;19994;-62
2024/04/24 03:18:02;;;;;;;0.45;0.20;;;;;;;;;;2269172;26;20049;-63
2024/04/24 03:19:04;;;;;;;0.68;0.17;;;;;;;;;;2267327;26;20050;-61
2024/04/24 03:20:05;;;;;;;2.15;0.28;;;;;;;;;;2270062;26;20045;-64
2024/04/24 03:21:06;;;;;;;0.20;0.15;;;;;;;;;;2270074;26;19998;-63
2024/04/24 03:22:08;;;;;;;0.60;0.25;;;;;;;;;;2270202;26;19998;-63
2024/04/24 03:23:09;;;;;;;0.63;0.10;;;;;;;;;;2270198;26;20022;-63
2024/04/24 03:24:10;;;;;;;0.50;0.10;;;;;;;;;;2269488;26;19999;-63
2024/04/24 03:25:12;;;;;;;0.20;0.10;;;;;;;;;;2269992;26;20038;-63
2024/04/24 03:26:13;;;;;;;0.20;0.13;;;;;;;;;;2267547;26;20019;-64
2024/04/24 03:27:15;;;;;;;2.70;0.30;;;;;;;;;;2270146;26;20048;-64
2024/04/24 03:28:16;;;;;;;0.98;0.38;;;;;;;;;;2270002;26;20005;-63
2024/04/24 03:29:17;;;;;;;0.50;0.20;;;;;;;;;;2270104;26;20331;-62
2024/04/24 03:30:19;;;;;;;0.63;0.30;;;;;;;;;;2270347;26;19995;-63
2024/04/24 03:31:20;;;;;;;0.20;0.10;;;;;;;;;;2270045;26;20002;-63
2024/04/24 03:32:21;;;;;;;2.20;0.38;;;;;;;;;;2267158;26;20013;-62
2024/04/24 03:33:23;;;;;;;1.02;0.15;;;;;;;;;;2270668;26;20013;-63
2024/04/24 03:34:24;;;;;;;1.17;0.30;;;;;;;;;;2270433;26;19991;-64
2024/04/24 03:35:25;;;;;;;0.52;0.20;;;;;;;;;;2270603;26;20005;-63
2024/04/24 03:36:27;;;;;;;0.50;0.17;;;;;;;;;;2270368;26;19994;-62
2024/04/24 03:37:28;;;;;;;0.40;0.20;;;;;;;;;;2253974;26;20319;-62
2024/04/24 03:38:29;;;;;;;0.93;0.20;;;;;;;;;;2239351;26;20007;-61
2024/04/24 03:39:31;;;;;;;1.02;0.17;;;;;;;;;;2253917;26;20005;-62
2024/04/24 03:40:33;;;;;;;0.55;0.30;;;;;;;;;;2253639;26;19999;-63
2024/04/24 03:41:34;;;;;;;1.98;0.13;;;;;;;;;;2252012;26;20475;-63
2024/04/24 03:42:36;;;;;;;1.10;0.30;;;;;;;;;;2269978;26;20075;-63
2024/04/24 03:43:38;;;;;;;1.20;0.22;;;;;;;;;;2269653;26;20395;-62
2024/04/24 03:44:39;;;;;;;0.30;0.20;;;;;;;;;;2269937;26;19999;-62
2024/04/24 03:45:40;;;;;;;0.17;0.13;;;;;;;;;;2270150;26;20319;-62
2024/04/24 03:46:42;;;;;;;0.70;0.20;;;;;;;;;;2269980;26;19998;-62
2024/04/24 03:47:43;;;;;;;0.40;0.20;;;;;;;;;;2270022;26;20006;-62
2024/04/24 03:48:44;;;;;;;0.15;0.10;;;;;;;;;;2267641;26;20017;-62
2024/04/24 03:49:46;;;;;;;0.63;0.25;;;;;;;;;;2269900;26;20009;-63
2024/04/24 03:50:47;;;;;;;1.30;0.25;;;;;;;;;;2269873;26;20137;-63
2024/04/24 03:51:48;;;;;;;1.95;0.70;;;;;;;;;;2269855;26;19998;-63
2024/04/24 03:52:50;;;;;;;0.30;0.10;;;;;;;;;;2269614;26;20070;-62
2024/04/24 03:53:51;;;;;;;1.10;0.28;;;;;;;;;;2253814;26;19999;-62
2024/04/24 03:54:52;;;;;;;0.85;0.20;;;;;;;;;;2254255;26;20010;-63
2024/04/24 03:55:54;;;;;;;0.77;0.30;;;;;;;;;;2267688;26;20466;-62
2024/04/24 03:56:55;;;;;;;1.75;0.20;;;;;;;;;;2269975;26;20078;-63
2024/04/24 03:57:56;;;;;;;0.88;0.45;;;;;;;;;;2269719;26;20002;-63
2024/04/24 03:58:58;;;;;;;1.13;0.40;;;;;;;;;;2269729;26;20002;-63
2024/04/24 04:00:00;;;;;;;0.82;0.32;;;;;;;;;;2269822;26;20399;-63
2024/04/24 04:01:01;;;;;;;1.20;0.25;;;;;;;;;;2269700;26;20010;-63
2024/04/24 04:02:04;;;;;;;1.55;0.20;;;;;;;;;;2267401;26;20042;-63
2024/04/24 04:03:07;;;;;;;1.50;0.40;;;;;;;;;;2269786;26;20013;-63
2024/04/24 04:04:09;;;;;;;1.65;0.30;;;;;;;;;;2269752;26;20066;-62
2024/04/24 04:05:10;;;;;;;1.60;0.50;;;;;;;;;;2269759;26;20002;-64
2024/04/24 04:06:12;;;;;;;1.33;0.30;;;;;;;;;;2270094;26;20066;-63
2024/04/24 04:07:13;;;;;;;1.13;0.40;;;;;;;;;;2269824;26;20002;-65
2024/04/24 04:08:16;;;;;;;0.38;0.20;;;;;;;;;;2268033;26;20010;-63
2024/04/24 04:09:17;;;;;;;1.42;0.50;;;;;;;;;;2269684;26;20010;-64
2024/04/24 04:10:18;;;;;;;0.50;0.15;;;;;;;;;;2269708;26;20044;-63
2024/04/24 04:11:20;;;;;;;0.38;0.22;;;;;;;;;;2269747;26;20010;-63
2024/04/24 04:12:21;;;;;;;0.52;0.32;;;;;;;;;;2269748;26;19994;-63
2024/04/24 04:13:22;;;;;;;0.77;0.30;;;;;;;;;;2269403;26;19998;-62
2024/04/24 04:14:24;;;;;;;0.88;0.28;;;;;;;;;;2267348;26;20013;-63
2024/04/24 04:15:25;;;;;;;1.05;0.30;;;;;;;;;;2269602;26;20002;-62
2024/04/24 04:16:28;;;;;;;0.80;0.30;;;;;;;;;;2269782;26;19998;-63
2024/04/24 04:17:29;;;;;;;1.67;0.30;;;;;;;;;;2269834;26;20327;-63
2024/04/24 04:18:32;;;;;;;0.65;0.20;;;;;;;;;;2269545;26;20443;-64
2024/04/24 04:19:33;;;;;;;0.57;0.30;;;;;;;;;;2269654;26;20013;-64
2024/04/24 04:20:35;;;;;;;2.08;0.30;;;;;;;;;;2267547;26;20006;-63
2024/04/24 04:21:36;;;;;;;0.55;0.20;;;;;;;;;;2266793;26;19990;-62
2024/04/24 04:22:37;;;;;;;1.08;0.40;;;;;;;;;;2251263;26;20002;-63
2024/04/24 04:23:39;;;;;;;0.50;0.20;;;;;;;;;;2253684;26;20010;-62
2024/04/24 04:24:41;;;;;;;0.68;0.30;;;;;;;;;;2269639;26;20034;-62
2024/04/24 04:25:42;;;;;;;2.50;0.30;;;;;;;;;;2269896;26;19998;-63
2024/04/24 04:26:46;;;;;;;2.22;0.38;;;;;;;;;;2270122;26;20088;-61
2024/04/24 04:27:47;;;;;;;2.58;0.40;;;;;;;;;;2269660;26;20013;-62
2024/04/24 04:28:48;;;;;;;4.22;0.40;;;;;;;;;;2269598;26;20455;-61
2024/04/24 04:29:50;;;;;;;0.47;0.25;;;;;;;;;;2270446;26;20013;-62
2024/04/24 04:30:51;;;;;;;1.52;0.30;;;;;;;;;;2255173;26;20382;-63
2024/04/24 04:31:53;;;;;;;2.17;0.40;;;;;;;;;;2255316;26;20343;-62
2024/04/24 04:32:54;;;;;;;0.40;0.20;;;;;;;;;;2252936;26;20003;-63
2024/04/24 04:33:56;;;;;;;2.65;0.30;;;;;;;;;;2255385;26;20479;-63
2024/04/24 04:34:57;;;;;;;2.10;0.28;;;;;;;;;;2271413;26;20013;-62
2024/04/24 04:35:58;;;;;;;1.58;0.35;;;;;;;;;;2271021;26;20065;-62
2024/04/24 04:37:00;;;;;;;8.35;3.03;;;;;;;;;;2271173;26;20010;-62
2024/04/24 04:38:01;;;;;;;2.15;0.75;;;;;;;;;;2270935;26;19994;-63
2024/04/24 04:39:04;;;;;;;2.67;1.40;;;;;;;;;;2252137;26;20002;-63
2024/04/24 04:40:05;;;;;;;1.88;0.30;;;;;;;;;;2238326;26;20495;-63
2024/04/24 04:41:07;;;;;;;0.70;0.22;;;;;;;;;;2255110;26;20010;-63
2024/04/24 04:42:09;;;;;;;0.60;0.30;;;;;;;;;;2271012;26;20026;-60
2024/04/24 04:43:11;;;;;;;0.32;0.30;;;;;;;;;;2271103;26;20002;-63
2024/04/24 04:44:12;;;;;;;0.85;0.30;;;;;;;;;;2271099;26;19998;-63
2024/04/24 04:45:14;;;;;;;0.80;0.20;;;;;;;;;;2268775;26;20014;-63
2024/04/24 04:46:15;;;;;;;2.28;0.35;;;;;;;;;;2271320;26;20070;-61
2024/04/24 04:47:16;;;;;;;0.55;0.22;;;;;;;;;;2271360;26;19998;-62
2024/04/24 04:48:19;;;;;;;1.33;0.30;;;;;;;;;;2270675;26;20474;-62
2024/04/24 04:49:20;;;;;;;1.42;0.30;;;;;;;;;;2271105;26;20453;-61
2024/04/24 04:50:22;;;;;;;2.08;0.40;;;;;;;;;;2271080;26;20017;-61
2024/04/24 04:51:24;;;;;;;1.50;0.45;;;;;;;;;;2269004;26;20426;-62
2024/04/24 04:52:26;;;;;;;0.95;0.25;;;;;;;;;;2270999;26;20012;-62
2024/04/24 04:53:27;;;;;;;1.65;0.57;;;;;;;;;;2271111;26;19998;-62
2024/04/24 04:54:29;;;;;;;0.80;0.40;;;;;;;;;;2270831;26;20009;-60
2024/04/24 04:55:30;;;;;;;0.88;0.25;;;;;;;;;;2270973;26;20057;-61
2024/04/24 04:56:31;;;;;;;1.30;0.50;;;;;;;;;;2270843;26;20002;-61
2024/04/24 04:57:34;;;;;;;0.98;0.30;;;;;;;;;;2268770;26;19998;-61
2024/04/24 04:58:36;;;;;;;1.05;0.35;;;;;;;;;;2270895;26;20006;-61
2024/04/24 04:59:37;;;;;;;0.75;0.40;;;;;;;;;;2271010;26;20009;-61
2024/04/24 05:00:38;;;;;;;0.68;0.35;;;;;;;;;;2271097;26;20478;-60
2024/04/24 05:01:40;;;;;;;1.27;0.40;;;;;;;;;;2271074;26;20359;-61
2024/04/24 05:02:41;;;;;;;0.50;0.30;;;;;;;;;;2271103;26;20030;-62
2024/04/24 05:03:42;;;;;;;1.38;0.57;;;;;;;;;;2252432;26;19990;-61
2024/04/24 05:04:44;;;;;;;1.95;0.30;;;;;;;;;;2253733;26;20062;-61
2024/04/24 05:05:45;;;;;;;2.55;0.50;;;;;;;;;;2268601;26;20006;-63
2024/04/24 05:06:46;;;;;;;0.85;0.40;;;;;;;;;;2267125;26;20182;-64
2024/04/24 05:07:48;;;;;;;2.67;0.30;;;;;;;;;;2266413;26;21107;-64
2024/04/24 05:08:49;;;;;;;1.95;0.40;;;;;;;;;;2269301;26;20476;-64
2024/04/24 05:09:51;;;;;;;1.15;0.40;;;;;;;;;;2265597;26;19998;-64
2024/04/24 05:10:52;;;;;;;2.17;0.50;;;;;;;;;;2267657;26;20003;-63
2024/04/24 05:11:53;;;;;;;2.10;0.38;;;;;;;;;;2267680;26;20014;-64
2024/04/24 05:12:55;;;;;;;1.58;0.57;;;;;;;;;;2268129;26;20338;-63
2024/04/24 05:13:56;;;;;;;2.35;0.40;;;;;;;;;;2268326;26;19997;-64
2024/04/24 05:14:58;;;;;;;1.70;0.40;;;;;;;;;;2268434;26;20048;-64
2024/04/24 05:16:01;;;;;;;0.70;0.25;;;;;;;;;;2268030;26;20010;-63
2024/04/24 05:17:02;;;;;;;3.60;0.47;;;;;;;;;;2268391;26;20038;-63
2024/04/24 05:18:04;;;;;;;8.35;0.73;;;;;;;;;;2266420;26;20010;-64
2024/04/24 05:19:06;;;;;;;1.17;0.40;;;;;;;;;;2268174;26;20010;-63
2024/04/24 05:20:07;;;;;;;2.33;0.40;;;;;;;;;;2268347;26;20013;-64
2024/04/24 05:21:09;;;;;;;1.42;0.60;;;;;;;;;;2269005;26;20013;-63
2024/04/24 05:22:10;;;;;;;4.30;0.93;;;;;;;;;;2267935;26;20016;-64
2024/04/24 05:23:12;;;;;;;2.58;0.70;;;;;;;;;;2268148;26;20006;-64
2024/04/24 05:24:14;;;;;;;3.67;0.50;;;;;;;;;;2268935;26;20006;-64
2024/04/24 05:25:21;;;;;;;1.73;0.90;;;;;;;;;;2267748;26;20094;-64
2024/04/24 05:29:07;;;;;;;1.92;0.50;;;;;;;;;;2268302;26;20837;-63
2024/04/24 05:30:08;;;;;;;3.42;0.40;;;;;;;;;;2268377;26;20146;-63
2024/04/24 05:31:10;;;;;;;1.55;0.60;;;;;;;;;;2266608;26;20098;-62
2024/04/24 05:32:11;;;;;;;1.90;0.50;;;;;;;;;;2266332;26;20013;-63
2024/04/24 05:33:13;;;;;;;0.90;0.35;;;;;;;;;;2269833;26;20002;-63
2024/04/24 05:34:15;;;;;;;2.55;0.63;;;;;;;;;;2266023;26;20010;-62
2024/04/24 05:35:16;;;;;;;0.68;0.40;;;;;;;;;;2252670;26;20039;-62
2024/04/24 05:36:18;;;;;;;8.50;0.63;;;;;;;;;;2235673;26;20074;-67
2024/04/24 05:37:19;;;;;;;2.80;0.60;;;;;;;;;;2252388;26;20006;-67
2024/04/24 05:38:20;;;;;;;2.78;0.70;;;;;;;;;;2269011;26;20066;-68
2024/04/24 05:39:22;;;;;;;1.27;0.43;;;;;;;;;;2266655;26;20459;-65
2024/04/24 05:40:23;;;;;;;4.25;0.60;;;;;;;;;;2266457;26;20002;-66
2024/04/24 05:41:25;;;;;;;2.50;0.52;;;;;;;;;;2264576;26;19998;-64
2024/04/24 05:42:26;;;;;;;4.45;0.90;;;;;;;;;;2268876;26;20026;-65
2024/04/24 05:43:27;;;;;;;6.28;3.05;;;;;;;;;;2268516;26;20050;-66
2024/04/24 05:44:33;;;;;;;3.15;0.60;;;;;;;;;;2268464;26;19998;-66
2024/04/24 05:45:34;;;;;;;2.75;0.60;;;;;;;;;;2269903;26;20015;-67
2024/04/24 05:46:36;;;;;;;4.10;0.70;;;;;;;;;;2269512;26;19994;-71
2024/04/24 05:47:38;;;;;;;1.90;0.70;;;;;;;;;;2269630;26;20009;-73
2024/04/24 05:48:39;;;;;;;2.90;0.43;;;;;;;;;;2269163;26;20028;-67
2024/04/24 05:49:41;;;;;;;4.60;0.60;;;;;;;;;;2269506;26;19998;-67
2024/04/24 05:50:43;;;;;;;0.60;0.40;;;;;;;;;;2269380;26;20005;-67
2024/04/24 05:51:44;;;;;;;1.52;0.63;;;;;;;;;;2269566;26;20020;-69
2024/04/24 05:52:45;;;;;;;4.50;0.80;;;;;;;;;;2268859;26;20002;-69
2024/04/24 05:53:47;;;;;;;5.40;1.05;;;;;;;;;;2268948;26;19994;-71
2024/04/24 05:54:48;;;;;;;1.65;0.75;;;;;;;;;;2269570;26;20017;-71
2024/04/24 05:55:50;;;;;;;6.10;0.80;;;;;;;;;;2268301;26;19998;-67
2024/04/24 05:56:51;;;;;;;0.90;0.30;;;;;;;;;;2268722;26;19998;-67
2024/04/24 05:57:52;;;;;;;3.75;0.93;;;;;;;;;;2269085;26;19997;-66
2024/04/24 05:58:54;;;;;;;2.60;0.75;;;;;;;;;;2268259;26;20013;-68
2024/04/24 05:59:56;;;;;;;3.47;0.60;;;;;;;;;;2269294;26;19998;-70
2024/04/24 06:00:57;;;;;;;2.38;0.63;;;;;;;;;;2269624;26;20082;-74
2024/04/24 06:01:58;;;;;;;2.38;0.80;;;;;;;;;;2269192;26;20013;-75
2024/04/24 06:03:00;;;;;;;3.65;0.68;;;;;;;;;;2269029;26;20006;-70
2024/04/24 06:04:01;;;;;;;1.95;0.70;;;;;;;;;;2269073;26;20435;-74
2024/04/24 06:05:03;;;;;;;3.10;0.70;;;;;;;;;;2253262;26;19995;-69
2024/04/24 06:06:05;;;;;;;1.85;0.70;;;;;;;;;;2251613;26;19995;-72
2024/04/24 06:07:07;;;;;;;0.95;0.57;;;;;;;;;;2268759;26;20122;-73
2024/04/24 06:08:08;;;;;;;2.08;0.70;;;;;;;;;;2267662;26;19998;-73
2024/04/24 06:09:09;;;;;;;2.17;0.80;;;;;;;;;;2267753;26;20050;-71
2024/04/24 06:10:11;;;;;;;1.58;0.60;;;;;;;;;;2266453;26;20642;-72
2024/04/24 06:11:12;;;;;;;1.38;0.77;;;;;;;;;;2267680;26;20066;-69
2024/04/24 06:12:14;;;;;;;3.28;0.77;;;;;;;;;;2267410;26;20002;-71
2024/04/24 06:13:15;;;;;;;1.30;0.60;;;;;;;;;;2266250;26;20002;-73
2024/04/24 06:14:17;;;;;;;2.03;0.70;;;;;;;;;;2269529;26;19994;-75